Time;durP1;ratioP1;P1;durP2;ratioP2;P2;SDS_P1;SDS_P2;PMS_P1;PMS_P2;Temp;Humidity;BMP_temperature;BMP_pressure;BME280_temperature;BME280_humidity;BME280_pressure;Samples;Min_cycle;Max_cycle;Signal;HPM_P1;HPM_P2
2023/07/08 00:02:13;;;;;;;6.50;5.90;;;19.90;1.00;;;;;;4988343;28;20461;-72
2023/07/08 00:04:41;;;;;;;7.40;6.60;;;19.90;1.00;;;;;;4992159;28;20466;-70
2023/07/08 00:07:13;;;;;;;7.23;6.40;;;19.80;1.00;;;;;;4989467;28;20474;-70
2023/07/08 00:09:42;;;;;;;7.30;6.10;;;19.80;1.00;;;;;;4989258;28;20475;-70
2023/07/08 00:12:12;;;;;;;6.30;5.70;;;19.70;1.00;;;;;;4992052;28;20507;-71
2023/07/08 00:14:39;;;;;;;6.10;5.50;;;19.70;1.00;;;;;;4988927;28;20491;-69
2023/07/08 00:17:12;;;;;;;6.80;6.20;;;19.70;1.00;;;;;;4986939;28;20564;-69
2023/07/08 00:19:39;;;;;;;6.80;6.07;;;19.60;1.00;;;;;;4986001;28;20476;-69
2023/07/08 00:22:12;;;;;;;6.17;5.60;;;19.60;1.00;;;;;;4988443;28;21051;-71
2023/07/08 00:24:39;;;;;;;7.57;6.50;;;19.60;1.00;;;;;;4986912;28;23285;-69
2023/07/08 00:27:12;;;;;;;6.23;5.70;;;19.50;1.00;;;;;;4987697;28;21173;-68
2023/07/08 00:29:38;;;;;;;7.67;6.10;;;19.50;1.00;;;;;;4986263;28;21248;-70
2023/07/08 00:32:12;;;;;;;6.07;5.57;;;19.50;1.00;;;;;;4989695;28;20527;-70
2023/07/08 00:34:39;;;;;;;7.10;6.40;;;19.50;1.00;;;;;;4995261;28;20490;-70
2023/07/08 00:37:06;;;;;;;6.97;6.37;;;19.50;1.00;;;;;;5004799;28;20927;-70
2023/07/08 00:39:33;;;;;;;7.43;6.73;;;19.50;1.00;;;;;;5004875;28;20950;-68
2023/07/08 00:42:01;;;;;;;6.40;5.87;;;19.50;1.00;;;;;;5000317;28;21206;-69
2023/07/08 00:44:29;;;;;;;7.23;6.50;;;19.50;1.00;;;;;;4992097;28;21157;-71
2023/07/08 00:47:02;;;;;;;6.53;5.97;;;19.40;1.00;;;;;;5009132;28;20539;-69
2023/07/08 00:49:38;;;;;;;7.10;6.50;;;19.40;1.00;;;;;;5006659;28;20646;-70
2023/07/08 00:52:20;;;;;;;6.30;5.80;;;19.40;1.00;;;;;;4997805;28;20462;-70
2023/07/08 00:54:49;;;;;;;7.37;6.63;;;19.40;1.00;;;;;;4995094;28;20556;-69
2023/07/08 00:57:16;;;;;;;7.13;6.53;;;19.30;1.00;;;;;;4990539;28;20464;-71
2023/07/08 00:59:51;;;;;;;6.87;6.30;;;19.40;1.00;;;;;;4999625;28;20477;-69
2023/07/08 01:02:22;;;;;;;7.60;6.90;;;19.30;1.00;;;;;;4996446;28;20488;-69
2023/07/08 01:04:54;;;;;;;6.93;6.30;;;19.30;1.00;;;;;;4991116;28;20878;-69
2023/07/08 01:07:22;;;;;;;6.50;5.93;;;19.30;1.00;;;;;;4995186;28;20496;-70
2023/07/08 01:09:53;;;;;;;6.80;6.20;;;19.20;1.00;;;;;;4995878;28;20599;-70
2023/07/08 01:12:24;;;;;;;6.60;6.10;;;19.20;1.00;;;;;;4991215;28;20473;-69
2023/07/08 01:14:55;;;;;;;7.60;7.00;;;19.20;1.00;;;;;;4993732;28;20850;-69
2023/07/08 01:17:22;;;;;;;6.73;6.20;;;19.10;1.00;;;;;;4995958;28;20543;-70
2023/07/08 01:19:51;;;;;;;7.00;6.40;;;19.10;1.00;;;;;;4996002;28;20538;-70
2023/07/08 01:22:20;;;;;;;8.17;7.53;;;19.00;1.00;;;;;;4990424;28;20460;-69
2023/07/08 01:24:48;;;;;;;8.20;7.40;;;19.00;1.00;;;;;;4992424;28;20469;-70
2023/07/08 01:27:19;;;;;;;7.53;6.93;;;18.90;1.00;;;;;;4996472;28;20472;-69
2023/07/08 01:29:47;;;;;;;7.10;6.60;;;18.90;1.00;;;;;;4996655;28;20511;-70
2023/07/08 01:32:17;;;;;;;7.93;7.13;;;18.90;1.00;;;;;;4993490;28;21130;-70
2023/07/08 01:34:59;;;;;;;8.80;6.97;;;18.90;1.00;;;;;;4995267;28;20560;-71
2023/07/08 01:37:34;;;;;;;8.23;7.50;;;18.80;1.00;;;;;;4993197;28;20558;-71
2023/07/08 01:40:16;;;;;;;7.33;5.97;;;18.90;1.00;;;;;;4992996;28;20569;-70
2023/07/08 01:42:43;;;;;;;8.10;7.27;;;18.90;1.00;;;;;;4997082;28;20554;-70
2023/07/08 01:45:13;;;;;;;7.70;7.00;;;18.90;1.00;;;;;;5003538;28;20507;-70
2023/07/08 01:47:41;;;;;;;7.43;6.73;;;18.90;1.00;;;;;;4999531;28;20438;-69
2023/07/08 01:50:10;;;;;;;7.40;6.77;;;18.90;1.00;;;;;;5003641;28;20982;-69
2023/07/08 01:52:38;;;;;;;7.83;7.13;;;18.80;1.00;;;;;;5004056;28;20546;-71
2023/07/08 01:55:06;;;;;;;8.50;6.80;;;18.80;1.00;;;;;;5002220;28;20551;-71
2023/07/08 01:57:33;;;;;;;7.67;7.03;;;18.80;1.00;;;;;;5000968;28;20538;-69
2023/07/08 02:00:00;;;;;;;6.50;6.03;;;18.70;1.00;;;;;;5003438;28;21351;-69
2023/07/08 02:02:27;;;;;;;6.60;5.90;;;18.70;1.00;;;;;;5003900;28;20952;-72
2023/07/08 02:04:55;;;;;;;7.00;6.43;;;18.70;1.00;;;;;;5002585;28;20546;-69
2023/07/08 02:07:22;;;;;;;9.57;7.10;;;18.70;1.00;;;;;;5002613;28;20468;-69
2023/07/08 02:09:50;;;;;;;6.83;6.20;;;18.60;1.00;;;;;;4999313;28;20488;-70
2023/07/08 02:12:17;;;;;;;6.83;6.33;;;18.60;1.00;;;;;;5003028;28;20997;-71
2023/07/08 02:14:46;;;;;;;6.53;6.03;;;18.60;1.00;;;;;;4990834;28;20483;-70
2023/07/08 02:17:16;;;;;;;7.27;6.57;;;18.60;1.00;;;;;;4998783;28;20455;-70
2023/07/08 02:19:44;;;;;;;7.90;5.80;;;18.50;1.00;;;;;;5003285;28;20963;-70
2023/07/08 02:22:11;;;;;;;7.67;6.37;;;18.60;1.00;;;;;;5001291;28;20461;-69
2023/07/08 02:24:38;;;;;;;6.73;6.13;;;18.50;1.00;;;;;;5003899;28;20468;-70
2023/07/08 02:27:07;;;;;;;7.43;6.70;;;18.50;1.00;;;;;;5000216;28;20460;-69
2023/07/08 02:29:34;;;;;;;8.17;7.37;;;18.40;1.00;;;;;;4998687;28;20504;-70
2023/07/08 02:32:00;;;;;;;8.67;6.57;;;18.40;1.00;;;;;;4990334;28;20494;-70
2023/07/08 02:34:27;;;;;;;8.33;6.13;;;18.30;1.00;;;;;;4992247;28;20461;-69
2023/07/08 02:36:56;;;;;;;7.27;6.67;;;18.30;1.00;;;;;;4990778;28;21074;-70
2023/07/08 02:39:23;;;;;;;8.53;6.77;;;18.30;1.00;;;;;;4988869;28;21536;-74
2023/07/08 02:41:50;;;;;;;9.33;5.80;;;18.30;1.00;;;;;;4993000;28;20523;-74
2023/07/08 02:44:18;;;;;;;8.70;6.70;;;18.30;1.00;;;;;;4999715;28;20450;-73
2023/07/08 02:46:45;;;;;;;9.93;6.40;;;18.30;1.00;;;;;;4988628;28;20594;-73
2023/07/08 02:49:12;;;;;;;6.87;6.27;;;18.30;1.00;;;;;;4985845;28;21733;-73
2023/07/08 02:51:39;;;;;;;6.97;6.37;;;18.30;1.00;;;;;;4993532;28;20609;-72
2023/07/08 02:54:06;;;;;;;7.60;6.90;;;18.30;1.00;;;;;;4989553;28;20971;-73
2023/07/08 02:56:33;;;;;;;5.87;5.37;;;18.20;1.00;;;;;;4988275;28;20458;-73
2023/07/08 02:59:00;;;;;;;7.03;6.50;;;18.20;1.00;;;;;;4999062;28;20555;-73
2023/07/08 03:01:28;;;;;;;6.33;5.43;;;18.20;1.00;;;;;;5002347;28;20943;-72
2023/07/08 03:03:56;;;;;;;6.13;5.70;;;18.20;1.00;;;;;;4993351;28;20555;-74
2023/07/08 03:06:23;;;;;;;6.50;6.00;;;18.10;1.00;;;;;;4992213;28;20468;-72
2023/07/08 03:08:50;;;;;;;7.30;6.50;;;18.10;1.00;;;;;;4993095;28;20475;-71
2023/07/08 03:11:17;;;;;;;6.37;5.77;;;18.10;1.00;;;;;;4991604;28;20457;-73
2023/07/08 03:13:44;;;;;;;7.53;6.73;;;18.10;1.00;;;;;;4992345;28;20448;-72
2023/07/08 03:16:13;;;;;;;7.27;6.53;;;18.10;1.00;;;;;;5005151;28;20483;-74
2023/07/08 03:18:46;;;;;;;8.43;7.57;;;18.10;1.00;;;;;;5002983;28;20498;-73
2023/07/08 03:21:14;;;;;;;6.97;6.27;;;18.10;1.00;;;;;;4999186;28;20467;-73
2023/07/08 03:23:41;;;;;;;8.63;6.37;;;18.10;1.00;;;;;;5000264;28;20558;-72
2023/07/08 03:26:13;;;;;;;8.97;6.50;;;18.10;1.00;;;;;;5003835;28;20468;-73
2023/07/08 03:28:40;;;;;;;7.03;6.23;;;18.10;1.00;;;;;;5003981;28;20554;-72
2023/07/08 03:31:10;;;;;;;7.10;6.40;;;18.10;1.00;;;;;;5000019;28;21283;-72
2023/07/08 03:33:37;;;;;;;9.97;7.77;;;18.10;1.00;;;;;;4990668;28;20562;-72
2023/07/08 03:36:13;;;;;;;6.23;5.67;;;18.10;1.00;;;;;;4992910;28;20569;-72
2023/07/08 03:38:40;;;;;;;6.50;6.00;;;18.10;1.00;;;;;;4993809;28;20534;-72
2023/07/08 03:41:07;;;;;;;6.80;6.30;;;18.20;1.00;;;;;;4995181;28;20483;-73
2023/07/08 03:43:34;;;;;;;6.40;5.77;;;18.20;1.00;;;;;;4990174;28;20555;-71
2023/07/08 03:46:01;;;;;;;6.00;5.50;;;18.20;1.00;;;;;;4995655;28;20458;-71
2023/07/08 03:48:28;;;;;;;6.63;6.03;;;18.30;1.00;;;;;;4992285;28;20597;-72
2023/07/08 03:50:55;;;;;;;7.43;6.30;;;18.30;1.00;;;;;;4989139;28;20532;-72
2023/07/08 03:53:23;;;;;;;6.60;5.40;;;18.30;1.00;;;;;;4989519;28;20461;-72
2023/07/08 03:55:50;;;;;;;5.90;5.40;;;18.40;1.00;;;;;;4992430;28;20468;-72
2023/07/08 03:58:17;;;;;;;6.90;6.30;;;18.40;1.00;;;;;;4990318;28;20488;-72
2023/07/08 04:00:44;;;;;;;6.73;5.53;;;18.40;1.00;;;;;;4990981;28;20583;-73
2023/07/08 04:03:12;;;;;;;6.10;5.60;;;18.50;1.00;;;;;;4989027;28;20864;-72
2023/07/08 04:05:39;;;;;;;6.30;5.57;;;18.50;1.00;;;;;;4987746;28;20856;-73
2023/07/08 04:08:06;;;;;;;6.57;6.17;;;18.50;1.00;;;;;;5001928;28;20476;-72
2023/07/08 04:10:34;;;;;;;6.77;6.10;;;18.60;1.00;;;;;;5001798;28;20558;-72
2023/07/08 04:13:01;;;;;;;6.37;5.57;;;18.60;1.00;;;;;;5005619;28;20491;-72
2023/07/08 04:15:28;;;;;;;5.87;5.37;;;18.70;1.00;;;;;;5003450;28;21000;-72
2023/07/08 04:17:57;;;;;;;5.73;5.23;;;18.70;1.00;;;;;;5003807;28;20559;-72
2023/07/08 04:20:25;;;;;;;6.13;5.60;;;18.70;1.00;;;;;;5002565;28;20460;-73
2023/07/08 04:22:51;;;;;;;7.33;6.67;;;18.80;1.00;;;;;;5003528;28;20553;-72
2023/07/08 04:25:20;;;;;;;5.80;5.23;;;18.70;1.00;;;;;;4993335;28;20590;-72
2023/07/08 04:27:48;;;;;;;6.83;6.13;;;18.80;1.00;;;;;;5006955;28;20559;-72
2023/07/08 04:30:23;;;;;;;11.70;10.70;;;18.80;1.00;;;;;;5003919;28;20466;-72
2023/07/08 04:32:51;;;;;;;8.40;6.80;;;18.90;1.00;;;;;;5005222;28;20824;-73
2023/07/08 04:35:18;;;;;;;7.70;6.90;;;18.90;1.00;;;;;;5004878;28;20461;-73
2023/07/08 04:37:47;;;;;;;7.43;6.60;;;19.00;1.00;;;;;;4998748;28;20555;-73
2023/07/08 04:40:18;;;;;;;12.33;7.00;;;19.00;1.00;;;;;;5007279;28;20507;-74
2023/07/08 04:42:47;;;;;;;6.77;6.00;;;19.10;1.00;;;;;;5004488;28;20851;-72
2023/07/08 04:45:18;;;;;;;6.13;5.53;;;19.20;1.00;;;;;;5003061;28;20531;-72
2023/07/08 04:47:46;;;;;;;10.80;6.67;;;19.20;1.00;;;;;;5002082;28;20466;-72
2023/07/08 04:50:14;;;;;;;6.87;6.37;;;19.30;1.00;;;;;;5002047;28;20470;-72
2023/07/08 04:52:41;;;;;;;6.07;5.47;;;19.40;1.00;;;;;;5004463;28;20560;-73
2023/07/08 04:55:10;;;;;;;5.40;4.90;;;19.40;1.00;;;;;;4995648;28;20505;-73
2023/07/08 04:57:37;;;;;;;5.70;5.20;;;19.50;1.00;;;;;;4999340;28;20507;-75
2023/07/08 05:00:09;;;;;;;9.77;8.80;;;19.60;1.00;;;;;;4999581;28;20465;-73
2023/07/08 05:02:37;;;;;;;6.93;6.33;;;19.50;1.00;;;;;;5002944;28;22116;-73
2023/07/08 05:05:04;;;;;;;6.10;5.60;;;19.60;1.00;;;;;;4994266;28;20516;-71
2023/07/08 05:07:31;;;;;;;6.00;5.33;;;19.70;1.00;;;;;;5002705;28;21004;-72
2023/07/08 05:09:59;;;;;;;6.70;6.10;;;19.80;1.00;;;;;;5004798;28;20465;-73
2023/07/08 05:12:27;;;;;;;22.13;7.87;;;19.90;1.00;;;;;;4999324;28;20505;-72
2023/07/08 05:14:54;;;;;;;12.37;6.90;;;19.90;1.00;;;;;;4994268;28;20555;-73
2023/07/08 05:17:21;;;;;;;6.60;5.90;;;20.00;1.00;;;;;;5004048;28;20574;-72
2023/07/08 05:19:51;;;;;;;8.60;5.93;;;20.10;1.00;;;;;;4995150;28;20575;-73
2023/07/08 05:22:18;;;;;;;6.73;5.63;;;20.20;1.00;;;;;;4994581;28;20530;-72
2023/07/08 05:24:45;;;;;;;5.87;5.47;;;20.30;1.00;;;;;;4996811;28;20466;-72
2023/07/08 05:27:13;;;;;;;6.50;5.87;;;20.30;1.00;;;;;;5001288;28;21172;-74
2023/07/08 05:29:40;;;;;;;8.13;7.20;;;20.40;1.00;;;;;;4996391;28;20933;-73
2023/07/08 05:32:08;;;;;;;7.13;5.80;;;20.50;1.00;;;;;;4997300;28;20508;-72
2023/07/08 05:34:35;;;;;;;6.07;5.57;;;20.70;1.00;;;;;;4998726;28;20512;-72
2023/07/08 05:37:03;;;;;;;7.10;6.43;;;20.70;1.00;;;;;;5001222;28;21012;-73
2023/07/08 05:39:30;;;;;;;5.60;5.20;;;20.80;1.00;;;;;;4994472;28;20564;-73
2023/07/08 05:41:57;;;;;;;6.17;5.67;;;21.00;1.00;;;;;;5008404;28;20510;-73
2023/07/08 05:44:24;;;;;;;6.07;5.53;;;21.10;1.00;;;;;;5009928;28;20432;-73
2023/07/08 05:46:52;;;;;;;6.33;5.83;;;21.30;1.00;;;;;;5007435;28;20551;-73
2023/07/08 05:49:19;;;;;;;6.63;6.10;;;21.30;1.00;;;;;;5006643;28;20552;-74
2023/07/08 05:51:46;;;;;;;5.93;5.43;;;21.40;1.00;;;;;;5008203;28;20460;-73
2023/07/08 05:54:15;;;;;;;7.40;5.83;;;21.50;1.00;;;;;;5007232;28;20467;-72
2023/07/08 05:56:41;;;;;;;7.10;6.50;;;21.60;1.00;;;;;;5007280;28;20907;-73
2023/07/08 05:59:08;;;;;;;5.90;5.30;;;21.70;1.00;;;;;;4998898;28;20492;-72
2023/07/08 06:01:36;;;;;;;5.40;5.00;;;21.80;1.00;;;;;;4994581;28;20510;-72
2023/07/08 06:04:03;;;;;;;5.00;4.60;;;21.90;1.00;;;;;;5000910;28;20494;-72
2023/07/08 06:06:30;;;;;;;6.30;5.80;;;22.10;1.00;;;;;;5002921;28;20488;-73
2023/07/08 06:08:57;;;;;;;5.60;5.10;;;22.20;1.00;;;;;;5005806;28;20553;-73
2023/07/08 06:11:26;;;;;;;6.00;5.40;;;22.20;1.00;;;;;;5006182;28;20589;-72
2023/07/08 06:13:53;;;;;;;5.40;5.00;;;22.30;1.00;;;;;;5005455;28;20882;-73
2023/07/08 06:16:19;;;;;;;5.67;5.27;;;22.40;1.00;;;;;;5006473;28;21156;-72
2023/07/08 06:18:46;;;;;;;5.40;5.00;;;22.60;1.00;;;;;;5008963;28;20472;-74
2023/07/08 06:21:14;;;;;;;5.70;5.20;;;22.70;1.00;;;;;;4996879;28;20558;-73
2023/07/08 06:23:41;;;;;;;5.43;5.00;;;22.70;1.00;;;;;;5003026;28;21274;-73
2023/07/08 06:26:08;;;;;;;7.83;6.10;;;22.80;1.00;;;;;;5007200;28;20512;-72
2023/07/08 06:28:36;;;;;;;5.97;5.37;;;23.00;1.00;;;;;;5003903;28;21290;-72
2023/07/08 06:31:03;;;;;;;8.53;7.93;;;23.10;1.00;;;;;;4999667;28;21008;-73
2023/07/08 06:33:30;;;;;;;6.93;5.27;;;23.10;1.00;;;;;;4997304;28;20439;-73
2023/07/08 06:35:57;;;;;;;8.00;5.83;;;23.20;1.00;;;;;;5003975;28;20444;-73
2023/07/08 06:38:24;;;;;;;6.07;5.57;;;23.20;1.00;;;;;;5001859;28;20955;-74
2023/07/08 06:40:51;;;;;;;5.87;5.37;;;23.30;1.00;;;;;;4994438;28;20481;-72
2023/07/08 06:43:18;;;;;;;6.13;5.70;;;23.40;1.00;;;;;;4993241;28;20526;-73
2023/07/08 06:45:46;;;;;;;6.43;5.63;;;23.60;1.00;;;;;;4997164;28;20452;-72
2023/07/08 06:48:13;;;;;;;6.17;5.67;;;23.60;1.00;;;;;;4998783;28;21044;-73
2023/07/08 06:50:43;;;;;;;7.00;6.30;;;23.80;1.00;;;;;;4995494;28;20460;-73
2023/07/08 06:53:10;;;;;;;6.33;5.70;;;23.90;1.00;;;;;;5000473;28;20487;-73
2023/07/08 06:55:37;;;;;;;6.47;5.50;;;24.10;1.00;;;;;;4997299;28;20506;-73
2023/07/08 06:58:03;;;;;;;5.93;5.43;;;24.20;1.00;;;;;;4990872;28;20908;-73
2023/07/08 07:00:30;;;;;;;7.07;6.23;;;24.30;1.00;;;;;;4990014;28;20948;-73
2023/07/08 07:02:59;;;;;;;6.37;5.77;;;24.40;1.00;;;;;;4993083;28;20576;-74
2023/07/08 07:05:25;;;;;;;6.10;5.60;;;24.50;1.00;;;;;;4997148;28;20545;-74
2023/07/08 07:07:53;;;;;;;6.60;6.10;;;24.50;1.00;;;;;;4995957;28;20474;-76
2023/07/08 07:10:20;;;;;;;8.20;7.40;;;24.50;1.00;;;;;;4992495;28;20568;-75
2023/07/08 07:12:47;;;;;;;7.30;6.07;;;24.50;1.00;;;;;;4986728;28;20465;-75
2023/07/08 07:15:14;;;;;;;5.70;5.30;;;24.60;1.00;;;;;;4990708;28;20640;-75
2023/07/08 07:17:40;;;;;;;5.30;4.80;;;24.70;1.00;;;;;;4992304;28;20546;-75
2023/07/08 07:20:10;;;;;;;6.57;5.97;;;24.80;1.00;;;;;;5005645;28;20510;-75
2023/07/08 07:22:37;;;;;;;5.40;5.00;;;24.90;1.00;;;;;;4997597;28;20481;-75
2023/07/08 07:25:05;;;;;;;6.30;5.67;;;25.10;1.00;;;;;;4999463;28;20666;-75
2023/07/08 07:27:35;;;;;;;6.13;5.53;;;25.20;1.00;;;;;;4994907;28;20457;-74
2023/07/08 07:30:02;;;;;;;6.23;5.63;;;25.20;1.00;;;;;;4988697;28;20559;-74
2023/07/08 07:32:29;;;;;;;5.73;5.30;;;25.30;1.00;;;;;;4997655;28;20489;-74
2023/07/08 07:34:57;;;;;;;5.90;5.43;;;25.50;1.00;;;;;;4997572;28;20676;-74
2023/07/08 07:37:25;;;;;;;6.83;5.20;;;25.60;1.00;;;;;;4996391;28;20554;-73
2023/07/08 07:39:52;;;;;;;7.40;6.77;;;25.70;1.00;;;;;;5001395;28;20461;-75
2023/07/08 07:42:20;;;;;;;5.83;5.30;;;25.80;1.00;;;;;;5005892;28;20860;-73
2023/07/08 07:44:47;;;;;;;6.37;5.30;;;25.80;1.00;;;;;;5003502;28;20932;-74
2023/07/08 07:47:15;;;;;;;5.10;4.60;;;25.90;1.00;;;;;;5001468;28;20568;-74
2023/07/08 07:49:42;;;;;;;8.50;5.90;;;26.10;1.00;;;;;;4998724;28;20474;-75
2023/07/08 07:52:10;;;;;;;5.53;5.13;;;26.10;1.00;;;;;;4995739;28;20526;-75
2023/07/08 07:54:39;;;;;;;5.87;5.40;;;26.10;1.00;;;;;;4992664;28;21712;-74
2023/07/08 07:57:06;;;;;;;8.33;5.80;;;26.20;1.00;;;;;;4986927;28;20481;-74
2023/07/08 07:59:33;;;;;;;5.30;5.00;;;26.20;1.00;;;;;;4990937;28;20480;-75
2023/07/08 08:02:00;;;;;;;5.60;5.10;;;26.50;1.00;;;;;;4998456;28;20994;-75
2023/07/08 08:04:28;;;;;;;6.13;5.40;;;26.60;1.00;;;;;;4993029;28;20479;-74
2023/07/08 08:06:54;;;;;;;5.53;5.10;;;26.90;1.00;;;;;;4988442;28;20457;-74
2023/07/08 08:09:22;;;;;;;7.77;5.53;;;27.00;1.00;;;;;;4987177;28;20543;-74
2023/07/08 08:11:51;;;;;;;5.00;4.50;;;27.20;1.00;;;;;;4995098;28;20600;-75
2023/07/08 08:14:18;;;;;;;5.10;4.60;;;27.20;1.00;;;;;;4993489;28;20485;-75
2023/07/08 08:16:46;;;;;;;6.60;6.10;;;27.20;1.00;;;;;;4992682;28;20843;-75
2023/07/08 08:19:13;;;;;;;5.60;4.90;;;27.40;1.00;;;;;;4988828;28;20621;-74
2023/07/08 08:21:40;;;;;;;5.40;5.00;;;27.60;1.00;;;;;;4998627;28;20490;-75
2023/07/08 08:24:07;;;;;;;6.47;5.70;;;27.80;1.00;;;;;;4998933;28;20560;-74
2023/07/08 08:26:34;;;;;;;5.10;4.40;;;27.70;1.00;;;;;;5000773;28;20533;-75
2023/07/08 08:29:03;;;;;;;8.53;5.70;;;27.80;1.00;;;;;;4997620;28;20466;-74
2023/07/08 08:31:31;;;;;;;5.87;5.37;;;27.90;1.00;;;;;;4998875;28;20470;-75
2023/07/08 08:33:58;;;;;;;5.87;5.37;;;27.90;1.00;;;;;;5001452;28;20480;-74
2023/07/08 08:36:25;;;;;;;5.47;5.17;;;28.00;1.00;;;;;;4994611;28;20454;-75
2023/07/08 08:38:52;;;;;;;5.87;5.47;;;28.20;1.00;;;;;;5001192;28;20460;-75
2023/07/08 08:41:25;;;;;;;5.10;4.70;;;28.40;1.00;;;;;;5002597;28;20546;-75
2023/07/08 08:43:54;;;;;;;4.87;4.47;;;28.60;1.00;;;;;;4999918;28;20459;-74
2023/07/08 08:46:30;;;;;;;7.43;6.80;;;28.80;1.00;;;;;;4999489;28;20921;-74
2023/07/08 08:49:05;;;;;;;4.90;4.60;;;28.90;1.00;;;;;;5001653;28;20479;-74
2023/07/08 08:51:33;;;;;;;5.97;5.57;;;29.00;1.00;;;;;;4994421;28;20960;-74
2023/07/08 08:54:01;;;;;;;4.90;4.60;;;29.10;1.00;;;;;;5002287;28;20477;-75
2023/07/08 08:56:30;;;;;;;5.13;4.63;;;29.00;1.00;;;;;;4996339;28;20460;-75
2023/07/08 08:59:07;;;;;;;5.80;5.30;;;29.00;1.00;;;;;;5005860;28;20599;-75
2023/07/08 09:01:37;;;;;;;5.20;4.80;;;29.10;1.00;;;;;;5006414;28;21058;-75
2023/07/08 09:04:11;;;;;;;5.33;4.93;;;29.00;1.00;;;;;;5005299;28;20922;-74
2023/07/08 09:06:40;;;;;;;5.83;5.20;;;29.10;1.00;;;;;;5019035;28;20540;-74
2023/07/08 09:09:16;;;;;;;5.17;4.70;;;29.30;1.00;;;;;;5008365;28;20488;-74
2023/07/08 09:11:53;;;;;;;8.43;6.73;;;29.40;1.00;;;;;;5006218;28;20524;-74
2023/07/08 09:14:25;;;;;;;5.40;4.73;;;29.40;1.00;;;;;;5002371;28;20473;-75
2023/07/08 09:17:05;;;;;;;5.27;4.83;;;29.50;1.00;;;;;;5002151;28;20567;-74
2023/07/08 09:19:36;;;;;;;4.63;4.13;;;29.70;1.00;;;;;;5007995;28;20914;-75
2023/07/08 09:22:09;;;;;;;4.70;4.30;;;29.90;1.00;;;;;;4997811;28;20557;-74
2023/07/08 09:24:51;;;;;;;5.00;4.60;;;30.10;1.00;;;;;;4997463;28;20473;-75
2023/07/08 09:27:21;;;;;;;3.97;3.70;;;30.20;1.00;;;;;;4995277;28;20451;-75
2023/07/08 09:29:48;;;;;;;6.47;4.10;;;30.10;1.00;;;;;;4999310;28;20519;-75
2023/07/08 09:32:19;;;;;;;3.83;3.53;;;30.20;1.00;;;;;;5006220;28;21228;-76
2023/07/08 09:34:50;;;;;;;5.50;5.00;;;30.30;1.00;;;;;;4996217;28;21020;-74
2023/07/08 09:37:26;;;;;;;4.50;4.10;;;30.40;1.00;;;;;;4994292;28;20454;-75
2023/07/08 09:39:53;;;;;;;4.63;4.23;;;30.60;1.00;;;;;;4995364;28;21090;-75
2023/07/08 09:42:23;;;;;;;4.13;3.83;;;30.90;1.00;;;;;;4996214;28;20460;-74
2023/07/08 09:44:55;;;;;;;4.30;3.90;;;31.60;1.00;;;;;;4999457;28;20535;-74
2023/07/08 09:47:28;;;;;;;3.73;3.33;;;32.90;1.00;;;;;;5005411;28;20470;-75
2023/07/08 09:49:55;;;;;;;5.10;4.13;;;34.50;1.00;;;;;;4995639;28;20652;-74
2023/07/08 09:52:23;;;;;;;4.00;3.70;;;35.90;1.00;;;;;;4994582;28;20512;-74
2023/07/08 09:54:50;;;;;;;3.40;3.20;;;36.80;1.00;;;;;;4999780;28;20569;-75
2023/07/08 09:57:28;;;;;;;4.13;3.80;;;37.60;1.00;;;;;;4995821;28;21361;-75
2023/07/08 09:59:59;;;;;;;4.30;3.97;;;38.10;1.00;;;;;;4992425;28;20461;-74
2023/07/08 10:02:43;;;;;;;3.47;3.17;;;38.10;1.00;;;;;;4994177;28;21009;-74
2023/07/08 10:05:17;;;;;;;4.10;3.80;;;38.20;1.00;;;;;;5005501;28;21135;-74
2023/07/08 10:07:46;;;;;;;4.30;3.93;;;38.80;1.00;;;;;;4997768;28;21123;-74
2023/07/08 10:10:17;;;;;;;3.90;3.67;;;39.50;1.00;;;;;;4993629;28;20636;-74
2023/07/08 10:12:58;;;;;;;4.70;4.23;;;39.90;1.00;;;;;;4993376;28;20478;-74
2023/07/08 10:15:31;;;;;;;5.93;4.10;;;39.80;1.00;;;;;;4996563;28;21070;-76
2023/07/08 10:18:00;;;;;;;3.57;3.37;;;40.40;1.00;;;;;;5002641;28;20548;-74
2023/07/08 10:20:48;;;;;;;3.53;3.03;;;40.90;1.00;;;;;;5004487;28;20831;-74
2023/07/08 10:23:27;;;;;;;4.77;4.37;;;40.80;1.00;;;;;;5002443;28;20533;-75
2023/07/08 10:26:02;;;;;;;3.90;3.53;;;41.30;1.00;;;;;;5005404;28;20476;-75
2023/07/08 10:28:39;;;;;;;4.00;3.80;;;41.70;1.00;;;;;;5004160;28;20509;-75
2023/07/08 10:31:22;;;;;;;3.37;3.07;;;41.70;1.00;;;;;;4991568;28;21057;-74
2023/07/08 10:34:08;;;;;;;8.40;4.70;;;41.30;1.00;;;;;;4998039;28;20461;-75
2023/07/08 10:36:44;;;;;;;4.17;3.80;;;41.80;1.00;;;;;;5004044;28;20478;-75
2023/07/08 10:39:40;;;;;;;4.00;3.70;;;42.40;1.00;;;;;;5005195;28;20540;-74
2023/07/08 10:42:16;;;;;;;2.90;2.70;;;42.80;1.00;;;;;;4995170;28;22034;-74
2023/07/08 10:44:56;;;;;;;5.43;5.03;;;42.60;1.00;;;;;;4998472;28;20548;-74
2023/07/08 10:47:38;;;;;;;3.70;3.40;;;42.80;1.00;;;;;;5002584;28;20908;-75
2023/07/08 10:50:26;;;;;;;3.83;3.57;;;43.10;1.00;;;;;;4998534;28;20558;-75
2023/07/08 10:53:04;;;;;;;3.93;3.63;;;43.00;1.00;;;;;;4993080;28;20529;-75
2023/07/08 10:55:42;;;;;;;4.20;3.90;;;43.20;1.00;;;;;;4985827;28;20903;-73
2023/07/08 10:58:35;;;;;;;4.00;3.60;;;43.50;1.00;;;;;;4994249;28;20477;-75
2023/07/08 11:01:11;;;;;;;3.50;3.20;;;44.10;1.00;;;;;;4995229;28;20461;-74
2023/07/08 11:04:06;;;;;;;4.73;3.27;;;44.50;1.00;;;;;;4995802;28;20572;-75
2023/07/08 11:06:45;;;;;;;4.67;4.27;;;45.20;1.00;;;;;;4991252;28;21050;-73
2023/07/08 11:09:20;;;;;;;4.47;4.03;;;45.60;1.00;;;;;;4997933;28;20477;-76
2023/07/08 11:11:56;;;;;;;4.23;3.10;;;45.50;1.00;;;;;;5005355;28;20521;-74
2023/07/08 11:14:28;;;;;;;5.20;4.50;;;45.70;1.00;;;;;;5001913;28;20516;-74
2023/07/08 11:17:04;;;;;;;3.70;3.40;;;45.50;1.00;;;;;;5002418;28;20462;-75
2023/07/08 11:19:36;;;;;;;4.40;4.00;;;45.20;1.00;;;;;;4993500;28;21247;-75
2023/07/08 11:22:11;;;;;;;3.73;2.90;;;44.80;1.00;;;;;;4985642;28;20549;-73
2023/07/08 11:24:44;;;;;;;3.93;3.53;;;44.30;1.00;;;;;;4991077;28;20511;-74
2023/07/08 11:27:26;;;;;;;3.93;3.63;;;44.50;1.00;;;;;;4993669;28;20474;-75
2023/07/08 11:29:59;;;;;;;4.60;4.30;;;44.80;1.00;;;;;;4994418;28;20528;-75
2023/07/08 11:32:29;;;;;;;4.20;3.90;;;45.10;1.00;;;;;;4995751;28;21019;-74
2023/07/08 11:34:58;;;;;;;4.07;3.77;;;45.00;1.00;;;;;;4990507;28;21261;-74
2023/07/08 11:37:27;;;;;;;3.70;3.40;;;44.70;1.00;;;;;;4988264;28;20657;-75
2023/07/08 11:39:58;;;;;;;3.20;2.90;;;44.50;1.00;;;;;;4983707;28;20481;-74
2023/07/08 11:42:39;;;;;;;3.70;3.40;;;43.90;1.00;;;;;;4995239;28;20913;-74
2023/07/08 11:45:24;;;;;;;4.87;4.37;;;43.70;1.00;;;;;;4992733;28;20472;-74
2023/07/08 11:47:51;;;;;;;7.23;4.07;;;43.50;1.00;;;;;;5001870;28;20543;-75
2023/07/08 11:50:22;;;;;;;3.40;3.10;;;44.20;1.00;;;;;;4998667;28;20903;-73
2023/07/08 11:52:56;;;;;;;3.87;3.57;;;44.50;1.00;;;;;;5001052;28;20838;-76
2023/07/08 11:55:28;;;;;;;3.43;3.23;;;44.70;1.00;;;;;;5002041;28;20568;-75
2023/07/08 11:58:00;;;;;;;3.80;3.47;;;45.00;1.00;;;;;;4998357;28;20569;-75
2023/07/08 12:00:33;;;;;;;5.50;4.03;;;45.40;1.00;;;;;;4998377;28;21083;-74
2023/07/08 12:03:18;;;;;;;3.03;2.83;;;45.60;1.00;;;;;;4992354;28;20476;-74
2023/07/08 12:05:46;;;;;;;3.67;3.37;;;46.10;1.00;;;;;;4999088;28;20454;-75
2023/07/08 12:08:16;;;;;;;3.83;3.53;;;46.10;1.00;;;;;;5004052;28;20478;-75
2023/07/08 12:10:52;;;;;;;3.57;3.30;;;46.40;1.00;;;;;;5002937;28;20524;-75
2023/07/08 12:13:21;;;;;;;3.47;3.23;;;46.40;1.00;;;;;;5000913;28;20822;-74
2023/07/08 12:15:48;;;;;;;5.93;3.80;;;45.70;1.00;;;;;;4997109;28;20466;-76
2023/07/08 12:18:17;;;;;;;4.10;3.80;;;45.20;1.00;;;;;;5005829;28;20473;-75
2023/07/08 12:20:47;;;;;;;3.53;3.23;;;45.30;1.00;;;;;;5003403;28;20481;-75
2023/07/08 12:23:21;;;;;;;4.00;3.60;;;45.70;1.00;;;;;;5003542;28;20502;-74
2023/07/08 12:25:52;;;;;;;3.87;3.57;;;46.00;1.00;;;;;;5002829;28;20453;-76
2023/07/08 12:28:20;;;;;;;3.60;3.30;;;46.30;1.00;;;;;;5003217;28;20510;-75
2023/07/08 12:30:48;;;;;;;5.00;4.57;;;45.90;1.00;;;;;;5000290;28;20466;-76
2023/07/08 12:33:22;;;;;;;3.73;3.53;;;45.40;1.00;;;;;;5000314;28;20567;-75
2023/07/08 12:35:49;;;;;;;3.80;3.50;;;45.90;1.00;;;;;;4984380;28;22445;-75
2023/07/08 12:38:24;;;;;;;4.67;4.27;;;46.60;1.00;;;;;;4979243;28;20492;-74
2023/07/08 12:40:52;;;;;;;5.00;3.67;;;46.80;1.00;;;;;;4982444;28;22654;-74
2023/07/08 12:43:19;;;;;;;3.20;3.00;;;46.90;1.00;;;;;;5004932;28;20493;-75
2023/07/08 12:45:47;;;;;;;3.20;3.00;;;47.00;1.00;;;;;;5006999;28;20461;-74
2023/07/08 12:48:14;;;;;;;4.00;3.57;;;46.80;1.00;;;;;;5006894;28;20990;-74
2023/07/08 12:50:41;;;;;;;3.40;3.20;;;46.60;1.00;;;;;;5003394;28;20920;-74
2023/07/08 12:53:09;;;;;;;3.87;3.40;;;46.30;1.00;;;;;;5005363;28;20461;-73
2023/07/08 12:55:39;;;;;;;4.63;4.23;;;46.30;1.00;;;;;;5006592;28;20461;-73
2023/07/08 12:58:09;;;;;;;4.07;3.77;;;46.50;1.00;;;;;;5005673;28;20419;-74
2023/07/08 13:00:41;;;;;;;3.50;3.30;;;46.70;1.00;;;;;;5001501;28;20557;-75
2023/07/08 13:03:26;;;;;;;4.90;4.50;;;46.40;1.00;;;;;;5006732;28;20531;-75
2023/07/08 13:05:55;;;;;;;4.07;3.70;;;45.90;1.00;;;;;;5004245;28;20549;-74
2023/07/08 13:08:25;;;;;;;5.17;4.57;;;45.70;1.00;;;;;;5001034;28;20592;-75
2023/07/08 13:10:58;;;;;;;3.70;3.50;;;45.90;1.00;;;;;;5000655;28;20549;-75
2023/07/08 13:13:29;;;;;;;3.90;3.63;;;45.80;1.00;;;;;;5004256;28;20603;-74